createdAt,value
2019-02-19T00:00:35.341Z,27.67
2019-02-19T00:03:03.926Z,30.15
2019-02-19T00:05:32.484Z,22.90
2019-02-19T00:08:01.081Z,24.10
2019-02-19T00:10:29.633Z,24.23
2019-02-19T00:12:58.221Z,26.33
2019-02-19T00:15:26.802Z,25.40
2019-02-19T00:17:55.382Z,25.82
2019-02-19T00:20:23.970Z,25.17
2019-02-19T00:22:52.524Z,25.55
2019-02-19T00:25:21.167Z,22.52
2019-02-19T00:27:49.765Z,20.00
2019-02-19T00:30:18.350Z,19.75
2019-02-19T00:32:46.945Z,22.52
2019-02-19T00:35:15.530Z,16.93
2019-02-19T00:37:44.090Z,14.45
2019-02-19T00:40:12.666Z,13.13
2019-02-19T00:42:41.238Z,19.52
2019-02-19T00:45:16.455Z,10.78
2019-02-19T00:47:40.130Z,13.22
2019-02-19T00:50:08.802Z,9.60
2019-02-19T00:52:37.352Z,11.80
2019-02-19T00:55:06.024Z,16.77
2019-02-19T00:57:34.611Z,12.58
2019-02-19T01:00:03.150Z,11.28
2019-02-19T01:02:31.699Z,9.93
2019-02-19T01:05:00.360Z,12.98
2019-02-19T01:07:28.967Z,11.50
2019-02-19T01:09:57.516Z,11.90
2019-02-19T01:12:26.086Z,15.78
2019-02-19T01:14:54.666Z,11.83
2019-02-19T01:17:23.219Z,15.98
2019-02-19T01:19:51.775Z,10.68
2019-02-19T01:22:20.351Z,12.73
2019-02-19T01:24:48.928Z,10.00
2019-02-19T01:27:17.549Z,14.35
2019-02-19T01:29:46.096Z,13.40
2019-02-19T01:32:14.645Z,11.50
2019-02-19T01:34:43.224Z,11.03
2019-02-19T01:37:11.814Z,10.88
2019-02-19T01:39:40.359Z,10.95
2019-02-19T01:42:08.910Z,11.08
2019-02-19T01:44:37.489Z,10.85
2019-02-19T01:47:06.034Z,9.78
2019-02-19T01:49:34.634Z,10.55
2019-02-19T01:52:03.194Z,10.60
2019-02-19T01:54:31.745Z,13.93
2019-02-19T01:57:00.655Z,11.28
2019-02-19T01:59:29.239Z,10.93
2019-02-19T02:01:57.790Z,12.10
2019-02-19T02:04:26.336Z,10.35
2019-02-19T02:06:54.921Z,13.40
2019-02-19T02:09:23.494Z,15.13
2019-02-19T02:11:53.306Z,11.00
2019-02-19T02:14:23.366Z,11.97
2019-02-19T02:16:52.774Z,12.15
2019-02-19T02:19:22.151Z,13.88
2019-02-19T02:21:51.533Z,13.95
2019-02-19T02:24:20.122Z,10.93
2019-02-19T02:26:48.724Z,9.88
2019-02-19T02:29:17.747Z,16.82
2019-02-19T02:31:46.290Z,11.95
2019-02-19T02:34:14.826Z,12.25
2019-02-19T02:36:43.743Z,11.45
2019-02-19T02:39:12.286Z,11.68
2019-02-19T02:41:40.876Z,11.83
2019-02-19T02:44:09.414Z,13.15
2019-02-19T02:46:37.957Z,12.90
2019-02-19T02:49:06.536Z,12.78
2019-02-19T02:51:35.085Z,15.80
2019-02-19T02:54:03.671Z,12.28
2019-02-19T02:56:32.231Z,13.85
2019-02-19T02:59:01.059Z,14.05
2019-02-19T03:01:29.629Z,11.75
2019-02-19T03:03:58.221Z,11.00
2019-02-19T03:06:36.139Z,11.55
2019-02-19T03:09:05.303Z,13.65
2019-02-19T03:11:33.872Z,11.73
2019-02-19T03:14:02.483Z,14.18
2019-02-19T03:16:31.015Z,12.78
2019-02-19T03:18:59.874Z,14.23
2019-02-19T03:21:28.473Z,14.50
2019-02-19T03:23:57.051Z,16.65
2019-02-19T03:26:25.623Z,19.52
2019-02-19T03:28:54.220Z,18.40
2019-02-19T03:31:22.784Z,13.50
2019-02-19T03:33:51.329Z,13.72
2019-02-19T03:36:19.918Z,13.75
2019-02-19T03:38:48.477Z,13.03
2019-02-19T03:41:17.019Z,14.03
2019-02-19T03:43:45.597Z,28.10
2019-02-19T03:46:14.210Z,12.53
2019-02-19T03:48:42.772Z,17.27
2019-02-19T03:51:11.332Z,18.95
2019-02-19T03:53:39.920Z,21.97
2019-02-19T03:56:08.463Z,15.40
2019-02-19T03:58:37.023Z,19.00
2019-02-19T04:01:05.613Z,18.75
2019-02-19T04:03:34.169Z,21.15
2019-02-19T04:06:02.723Z,20.30
2019-02-19T04:08:31.347Z,21.55
2019-02-19T04:10:59.904Z,16.02
2019-02-19T04:13:28.499Z,18.80
2019-02-19T04:15:57.415Z,24.80
2019-02-19T04:18:25.965Z,22.37
2019-02-19T04:20:54.551Z,24.72
2019-02-19T04:23:23.389Z,30.48
2019-02-19T04:25:52.007Z,22.17
2019-02-19T04:28:20.918Z,28.17
2019-02-19T04:30:49.469Z,29.95
2019-02-19T04:33:18.021Z,42.38
2019-02-19T04:35:46.604Z,37.98
2019-02-19T04:38:15.153Z,39.75
2019-02-19T04:40:43.732Z,44.98
2019-02-19T04:43:12.281Z,47.53
2019-02-19T04:45:40.831Z,56.73
2019-02-19T04:48:09.417Z,57.23
2019-02-19T04:50:37.973Z,52.45
2019-02-19T04:53:06.531Z,54.58
2019-02-19T04:55:35.691Z,57.17
2019-02-19T04:58:04.305Z,57.80
2019-02-19T05:00:32.873Z,68.17
2019-02-19T05:03:01.457Z,72.20
2019-02-19T05:05:30.079Z,55.78
2019-02-19T05:07:58.629Z,55.25
2019-02-19T05:10:27.184Z,51.63
2019-02-19T05:12:55.818Z,56.28
2019-02-19T05:15:24.388Z,54.55
2019-02-19T05:17:52.932Z,48.98
2019-02-19T05:20:21.486Z,61.58
2019-02-19T05:22:50.081Z,58.42
2019-02-19T05:25:18.649Z,59.63
2019-02-19T05:27:47.225Z,54.90
2019-02-19T05:30:15.833Z,50.75
2019-02-19T05:32:44.422Z,51.68
2019-02-19T05:35:12.983Z,50.80
2019-02-19T05:37:41.584Z,50.10
2019-02-19T05:40:10.163Z,54.18
2019-02-19T05:42:38.724Z,50.20
2019-02-19T05:45:07.650Z,53.08
2019-02-19T05:47:36.251Z,42.78
2019-02-19T05:50:05.343Z,43.28
2019-02-19T05:52:33.890Z,52.17
2019-02-19T05:55:02.467Z,45.48
2019-02-19T05:57:31.052Z,45.33
2019-02-19T05:59:59.677Z,47.73
2019-02-19T06:02:28.314Z,48.17
2019-02-19T06:04:56.866Z,42.27
2019-02-19T06:07:25.470Z,45.43
2019-02-19T06:09:54.019Z,52.83
2019-02-19T06:12:22.628Z,44.77
2019-02-19T06:14:51.514Z,40.45
2019-02-19T06:17:20.072Z,43.05
2019-02-19T06:19:48.650Z,48.48
2019-02-19T06:22:17.243Z,39.95
2019-02-19T06:24:46.118Z,41.77
2019-02-19T06:27:14.715Z,47.60
2019-02-19T06:29:43.268Z,40.03
2019-02-19T06:32:11.845Z,46.13
2019-02-19T06:34:40.407Z,42.45
2019-02-19T06:37:09.000Z,47.95
2019-02-19T06:39:37.579Z,43.63
2019-02-19T06:42:06.130Z,36.63
2019-02-19T06:44:34.740Z,39.88
2019-02-19T06:47:06.858Z,42.23
2019-02-19T06:49:33.613Z,39.58
2019-02-19T06:52:02.189Z,39.83
2019-02-19T06:54:30.746Z,40.73
2019-02-19T06:56:59.355Z,36.42
2019-02-19T06:59:27.917Z,35.90
2019-02-19T07:02:17.581Z,35.80
2019-02-19T07:04:52.721Z,39.20
2019-02-19T07:07:21.322Z,32.80
2019-02-19T07:09:49.889Z,30.65
2019-02-19T07:12:27.561Z,35.75
2019-02-19T07:15:05.087Z,36.15
2019-02-19T07:17:33.654Z,36.53
2019-02-19T07:20:02.228Z,31.33
2019-02-19T07:22:30.832Z,31.55
2019-02-19T07:24:59.451Z,37.50
2019-02-19T07:27:28.397Z,37.60
2019-02-19T07:29:56.989Z,37.95
2019-02-19T07:32:25.595Z,33.60
2019-02-19T07:34:54.154Z,31.93
2019-02-19T07:37:22.714Z,29.75
2019-02-19T07:39:51.290Z,36.17
2019-02-19T07:42:19.866Z,32.65
2019-02-19T07:44:48.444Z,36.28
2019-02-19T07:47:24.441Z,37.03
2019-02-19T07:49:47.314Z,54.08
2019-02-19T07:52:15.875Z,47.03
2019-02-19T07:54:44.441Z,45.92
2019-02-19T07:57:13.053Z,47.15
2019-02-19T07:59:41.623Z,51.50
2019-02-19T08:02:10.176Z,46.83
2019-02-19T08:04:38.772Z,41.63
2019-02-19T08:07:07.329Z,48.33
2019-02-19T08:09:35.882Z,46.65
2019-02-19T08:12:04.454Z,49.20
2019-02-19T08:14:33.036Z,59.65
2019-02-19T08:17:01.669Z,59.30
2019-02-19T08:19:31.435Z,53.23
2019-02-19T08:21:59.986Z,54.88
2019-02-19T08:24:28.560Z,55.52
2019-02-19T08:26:57.557Z,59.45
2019-02-19T08:29:26.142Z,52.23
2019-02-19T08:31:54.752Z,54.88
2019-02-19T08:34:23.296Z,56.85
2019-02-19T08:36:51.951Z,56.40
2019-02-19T08:39:20.538Z,55.38
2019-02-19T08:41:49.089Z,55.48
2019-02-19T08:44:17.664Z,58.35
2019-02-19T08:46:46.210Z,58.20
2019-02-19T08:49:14.795Z,54.75
2019-02-19T08:51:43.361Z,58.30
2019-02-19T08:54:11.922Z,54.50
2019-02-19T08:56:40.513Z,49.50
2019-02-19T08:59:09.451Z,56.45
2019-02-19T09:01:38.020Z,60.38
2019-02-19T09:04:06.575Z,55.35
2019-02-19T09:06:35.184Z,56.35
2019-02-19T09:09:04.962Z,53.98
2019-02-19T09:11:33.515Z,52.13
2019-02-19T09:14:02.113Z,41.53
2019-02-19T09:16:30.661Z,49.18
2019-02-19T09:18:59.240Z,42.55
2019-02-19T09:21:27.825Z,46.80
2019-02-19T09:23:58.388Z,46.00
2019-02-19T09:26:26.709Z,38.45
2019-02-19T09:28:55.330Z,40.52
2019-02-19T09:31:23.908Z,43.78
2019-02-19T09:33:52.491Z,46.65
2019-02-19T09:36:21.053Z,47.30
2019-02-19T09:38:49.633Z,42.93
2019-02-19T09:41:18.534Z,42.83
2019-02-19T09:43:47.124Z,43.25
2019-02-19T09:46:15.715Z,55.28
2019-02-19T09:48:44.282Z,54.00
2019-02-19T09:51:16.231Z,43.85
2019-02-19T09:53:44.854Z,50.55
2019-02-19T09:56:13.409Z,56.90
2019-02-19T09:58:42.002Z,43.68
2019-02-19T10:01:10.871Z,43.65
2019-02-19T10:03:39.823Z,50.63
2019-02-19T10:06:22.032Z,46.98
2019-02-19T10:08:50.949Z,49.40
2019-02-19T10:11:19.554Z,50.50
2019-02-19T10:13:48.160Z,47.65
2019-02-19T10:16:16.745Z,49.80
2019-02-19T10:18:45.317Z,44.80
2019-02-19T10:21:13.950Z,50.70
2019-02-19T10:23:42.518Z,48.28
2019-02-19T10:26:11.077Z,38.38
2019-02-19T10:28:39.652Z,35.33
2019-02-19T10:31:08.261Z,39.55
2019-02-19T10:33:36.828Z,40.60
2019-02-19T10:36:05.438Z,38.63
2019-02-19T10:38:34.005Z,36.40
2019-02-19T10:41:02.591Z,34.23
2019-02-19T10:43:31.169Z,32.50
2019-02-19T10:45:59.756Z,28.32
2019-02-19T10:48:28.346Z,45.12
2019-02-19T10:50:56.939Z,37.60
2019-02-19T10:53:25.498Z,32.95
2019-02-19T10:55:54.092Z,31.15
2019-02-19T10:58:23.342Z,34.73
2019-02-19T11:00:52.031Z,32.45
2019-02-19T11:03:20.599Z,30.55
2019-02-19T11:05:49.185Z,27.48
2019-02-19T11:08:17.758Z,30.65
2019-02-19T11:10:46.362Z,29.50
2019-02-19T11:13:14.961Z,25.80
2019-02-19T11:15:43.523Z,18.98
2019-02-19T11:18:12.151Z,25.97
2019-02-19T11:20:40.750Z,27.98
2019-02-19T11:23:09.707Z,32.15
2019-02-19T11:25:38.309Z,36.28
2019-02-19T11:28:06.918Z,28.05
2019-02-19T11:30:35.678Z,21.48
2019-02-19T11:33:04.226Z,28.42
2019-02-19T11:38:08.142Z,22.48
2019-02-19T11:40:38.016Z,22.95
2019-02-19T11:43:07.842Z,21.97
2019-02-19T11:45:36.799Z,24.10
2019-02-19T11:48:05.404Z,20.60
2019-02-19T11:50:34.459Z,17.87
2019-02-19T11:53:03.036Z,21.37
2019-02-19T11:55:31.619Z,20.05
2019-02-19T11:58:01.525Z,19.60
2019-02-19T12:00:34.983Z,17.85
2019-02-19T12:03:03.572Z,16.85
2019-02-19T12:05:34.566Z,17.92
2019-02-19T12:08:03.166Z,18.40
2019-02-19T12:10:31.732Z,21.52
2019-02-19T12:13:00.633Z,18.23
2019-02-19T12:15:35.196Z,21.15
2019-02-19T12:17:59.878Z,19.87
2019-02-19T12:20:30.783Z,17.80
2019-02-19T12:23:00.040Z,13.10
2019-02-19T12:25:28.595Z,19.77
2019-02-19T12:27:57.177Z,21.05
2019-02-19T12:30:26.103Z,18.45
2019-02-19T12:32:54.669Z,16.40
2019-02-19T12:35:23.279Z,18.55
2019-02-19T12:37:52.168Z,17.57
2019-02-19T12:40:21.382Z,15.90
2019-02-19T12:42:50.064Z,21.07
2019-02-19T12:45:18.623Z,20.52
2019-02-19T12:47:47.191Z,15.03
2019-02-19T12:50:17.173Z,23.30
2019-02-19T12:52:46.039Z,14.58
2019-02-19T12:55:14.594Z,14.58
2019-02-19T12:57:43.167Z,19.90
2019-02-19T13:00:13.829Z,17.37
2019-02-19T13:02:43.995Z,23.50
2019-02-19T13:05:13.054Z,16.95
2019-02-19T13:07:41.667Z,15.15
2019-02-19T13:10:10.392Z,12.20
2019-02-19T13:12:40.244Z,17.92
2019-02-19T13:15:13.711Z,17.15
2019-02-19T13:17:42.982Z,16.73
2019-02-19T13:20:13.111Z,14.00
2019-02-19T13:22:42.797Z,15.13
2019-02-19T13:25:13.600Z,13.45
2019-02-19T13:27:43.205Z,13.95
2019-02-19T13:30:14.415Z,14.65
2019-02-19T13:32:43.594Z,15.63
2019-02-19T13:35:13.883Z,15.48
2019-02-19T13:37:42.532Z,9.35
2019-02-19T13:40:12.000Z,42.38
2019-02-19T13:42:41.092Z,12.93
2019-02-19T13:45:11.521Z,9.33
2019-02-19T13:47:40.486Z,10.65
2019-02-19T13:50:11.967Z,10.35
2019-02-19T13:52:59.558Z,10.10
2019-02-19T13:55:32.054Z,17.25
2019-02-19T13:58:00.650Z,12.80
2019-02-19T14:00:30.018Z,15.78
2019-02-19T14:02:58.598Z,9.30
2019-02-19T14:05:27.630Z,18.60
2019-02-19T14:07:56.606Z,10.65
2019-02-19T14:10:25.444Z,11.48
2019-02-19T14:12:54.001Z,12.73
2019-02-19T14:15:57.373Z,18.27
2019-02-19T14:18:45.107Z,10.80
2019-02-19T14:21:34.927Z,9.83
2019-02-19T14:24:22.522Z,9.85
2019-02-19T14:27:22.217Z,8.85
2019-02-19T14:30:19.085Z,13.72
2019-02-19T14:33:05.895Z,12.00
2019-02-19T14:35:59.829Z,9.88
2019-02-19T14:38:46.372Z,14.20
2019-02-19T14:41:32.868Z,10.32
2019-02-19T14:44:15.325Z,14.38
2019-02-19T14:47:09.236Z,9.93
2019-02-19T14:49:52.309Z,11.43
2019-02-19T14:52:36.797Z,10.72
2019-02-19T14:55:24.451Z,11.68
2019-02-19T14:58:12.758Z,16.95
2019-02-19T15:00:59.726Z,11.97
2019-02-19T15:04:05.665Z,10.72
2019-02-19T15:06:56.089Z,11.70
2019-02-19T15:09:42.597Z,16.75
2019-02-19T15:12:29.228Z,10.32
2019-02-19T15:15:13.508Z,9.53
2019-02-19T15:17:52.990Z,10.93
2019-02-19T15:20:34.476Z,18.40
2019-02-19T15:23:33.157Z,12.33
2019-02-19T15:26:08.837Z,11.75
2019-02-19T15:29:15.160Z,14.78
2019-02-19T15:31:51.477Z,12.03
2019-02-19T15:34:33.431Z,13.05
2019-02-19T15:37:21.745Z,14.13
2019-02-19T15:40:12.851Z,16.42
2019-02-19T15:43:05.193Z,12.90
2019-02-19T15:45:53.190Z,13.38
2019-02-19T15:48:50.065Z,9.78
2019-02-19T15:51:32.906Z,13.68
2019-02-19T15:54:29.816Z,17.23
2019-02-19T15:57:04.192Z,16.52
2019-02-19T15:59:51.248Z,11.73
2019-02-19T16:02:46.035Z,12.28
2019-02-19T16:05:32.379Z,14.10
2019-02-19T16:08:26.128Z,14.80
2019-02-19T16:11:19.657Z,12.18
2019-02-19T16:13:56.310Z,14.35
2019-02-19T16:16:38.336Z,17.30
2019-02-19T16:19:37.828Z,15.68
2019-02-19T16:22:21.885Z,22.05
2019-02-19T16:25:02.118Z,13.15
2019-02-19T16:27:52.797Z,15.23
2019-02-19T16:30:33.499Z,11.55
2019-02-19T16:33:22.171Z,14.30
2019-02-19T16:35:57.888Z,18.75
2019-02-19T16:38:40.513Z,12.78
2019-02-19T16:41:21.799Z,12.60
2019-02-19T16:44:08.416Z,13.68
2019-02-19T16:46:44.256Z,11.93
2019-02-19T16:49:32.163Z,10.32
2019-02-19T16:52:08.252Z,11.45
2019-02-19T16:54:44.919Z,14.33
2019-02-19T16:57:31.771Z,14.28
2019-02-19T17:00:14.651Z,9.83
2019-02-19T17:02:57.303Z,10.32
2019-02-19T17:05:42.551Z,12.10
2019-02-19T17:08:18.844Z,17.60
2019-02-19T17:10:57.627Z,12.68
2019-02-19T17:13:44.185Z,11.12
2019-02-19T17:16:34.224Z,10.53
2019-02-19T17:19:09.619Z,12.10
2019-02-19T17:22:06.328Z,9.25
2019-02-19T17:24:54.313Z,14.63
2019-02-19T17:27:35.332Z,12.63
2019-02-19T17:30:14.595Z,16.30
2019-02-19T17:32:50.655Z,12.90
2019-02-19T17:35:43.984Z,12.23
2019-02-19T17:38:30.287Z,9.28
2019-02-19T17:41:14.283Z,12.33
2019-02-19T17:43:52.416Z,13.62
2019-02-19T17:46:51.978Z,11.48
2019-02-19T17:49:45.318Z,9.50
2019-02-19T17:52:31.457Z,8.48
2019-02-19T17:55:37.529Z,13.13
2019-02-19T17:58:14.791Z,12.25
2019-02-19T18:00:53.199Z,11.93
2019-02-19T18:03:36.437Z,14.47
2019-02-19T18:06:12.393Z,8.90
2019-02-19T18:09:09.320Z,14.20
2019-02-19T18:11:56.369Z,16.23
2019-02-19T18:14:35.261Z,12.88
2019-02-19T18:17:34.804Z,16.15
2019-02-19T18:20:03.367Z,19.48
2019-02-19T18:22:32.220Z,15.08
2019-02-19T18:25:00.845Z,12.30
2019-02-19T18:27:29.401Z,15.00
2019-02-19T18:29:57.967Z,15.15
2019-02-19T18:32:26.560Z,13.70
2019-02-19T18:34:55.115Z,14.40
2019-02-19T18:37:23.656Z,14.47
2019-02-19T18:39:52.233Z,10.88
2019-02-19T18:42:21.179Z,19.23
2019-02-19T18:44:49.756Z,15.05
2019-02-19T18:47:18.303Z,14.40
2019-02-19T18:49:46.928Z,11.53
2019-02-19T18:52:15.471Z,12.70
2019-02-19T18:54:44.027Z,12.35
2019-02-19T18:57:12.952Z,11.08
2019-02-19T18:59:43.019Z,14.38
2019-02-19T19:02:11.563Z,12.43
2019-02-19T19:04:40.119Z,13.80
2019-02-19T19:07:08.706Z,20.60
2019-02-19T19:09:37.270Z,13.22
2019-02-19T19:12:05.863Z,13.48
2019-02-19T19:14:34.421Z,10.30
2019-02-19T19:17:03.000Z,17.95
2019-02-19T19:19:31.591Z,14.95
2019-02-19T19:22:00.161Z,16.82
2019-02-19T19:24:28.821Z,13.55
2019-02-19T19:26:57.372Z,13.15
2019-02-19T19:29:25.922Z,10.53
2019-02-19T19:31:54.533Z,14.75
2019-02-19T19:34:23.084Z,11.20
2019-02-19T19:36:51.638Z,12.23
2019-02-19T19:39:20.213Z,12.40
2019-02-19T19:41:48.790Z,14.23
2019-02-19T19:44:17.367Z,13.93
2019-02-19T19:46:45.963Z,15.32
2019-02-19T19:49:14.520Z,12.47
2019-02-19T19:51:43.072Z,10.45
2019-02-19T19:54:11.659Z,12.25
2019-02-19T19:56:40.215Z,8.30
2019-02-19T19:59:08.805Z,13.10
2019-02-19T20:01:37.360Z,10.82
2019-02-19T20:04:05.912Z,10.28
2019-02-19T20:06:34.490Z,11.48
2019-02-19T20:09:04.629Z,13.55
2019-02-19T20:11:33.180Z,21.12
2019-02-19T20:14:01.829Z,13.88
2019-02-19T20:16:30.441Z,15.20
2019-02-19T20:18:58.995Z,16.30
2019-02-19T20:21:27.567Z,8.70
2019-02-19T20:23:56.145Z,13.43
2019-02-19T20:26:24.695Z,12.80
2019-02-19T20:28:53.297Z,12.15
2019-02-19T20:31:21.865Z,9.80
2019-02-19T20:33:50.404Z,13.18
2019-02-19T20:36:18.982Z,9.33
2019-02-19T20:38:47.536Z,8.78
2019-02-19T20:41:16.155Z,12.15
2019-02-19T20:43:44.753Z,12.90
2019-02-19T20:46:13.383Z,15.43
2019-02-19T20:48:42.071Z,9.00
2019-02-19T20:51:10.627Z,11.20
2019-02-19T20:53:39.203Z,11.15
2019-02-19T20:56:07.724Z,11.90
2019-02-19T20:58:36.291Z,17.05
2019-02-19T21:01:04.844Z,15.50
2019-02-19T21:03:35.802Z,12.75
2019-02-19T21:06:04.363Z,10.08
2019-02-19T21:08:32.947Z,12.68
2019-02-19T21:11:01.528Z,13.40
2019-02-19T21:13:30.116Z,8.03
2019-02-19T21:15:58.674Z,12.75
2019-02-19T21:18:28.227Z,10.60
2019-02-19T21:20:56.802Z,12.90
2019-02-19T21:23:25.353Z,18.17
2019-02-19T21:25:53.966Z,14.40
2019-02-19T21:28:22.535Z,18.12
2019-02-19T21:30:51.086Z,12.85
2019-02-19T21:33:19.662Z,16.37
2019-02-19T21:35:48.236Z,14.15
2019-02-19T21:38:16.843Z,9.28
2019-02-19T21:40:45.409Z,8.63
2019-02-19T21:43:13.993Z,17.05
2019-02-19T21:45:42.606Z,9.88
2019-02-19T21:48:11.176Z,15.72
2019-02-19T21:50:39.728Z,13.10
2019-02-19T21:53:08.335Z,18.90
2019-02-19T21:55:36.898Z,12.93
2019-02-19T21:58:06.576Z,16.17
2019-02-19T22:00:35.363Z,14.58
2019-02-19T22:03:03.928Z,19.92
2019-02-19T22:05:32.495Z,16.25
2019-02-19T22:08:01.091Z,14.25
2019-02-19T22:10:29.678Z,18.95
2019-02-19T22:12:58.486Z,15.43
2019-02-19T22:15:27.371Z,16.15
2019-02-19T22:17:56.915Z,9.93
2019-02-19T22:20:38.844Z,10.95
2019-02-19T22:23:08.125Z,12.47
2019-02-19T22:25:37.067Z,16.02
2019-02-19T22:28:06.020Z,14.40
2019-02-19T22:30:34.981Z,21.02
2019-02-19T22:33:04.975Z,18.35
2019-02-19T22:35:33.767Z,24.87
2019-02-19T22:38:02.601Z,20.45
2019-02-19T22:40:31.405Z,20.88
2019-02-19T22:43:00.171Z,15.10
2019-02-19T22:45:28.999Z,11.33
2019-02-19T22:47:57.787Z,16.05
2019-02-19T22:50:26.553Z,14.03
2019-02-19T22:52:56.111Z,16.93
2019-02-19T22:55:32.803Z,14.50
2019-02-19T22:58:01.596Z,17.37
2019-02-19T23:00:52.106Z,16.27
2019-02-19T23:03:24.767Z,19.27
2019-02-19T23:05:53.623Z,20.35
2019-02-19T23:08:23.356Z,21.48
2019-02-19T23:10:52.137Z,14.38
2019-02-19T23:13:20.948Z,15.55
2019-02-19T23:15:49.780Z,22.20
2019-02-19T23:18:18.813Z,23.85
2019-02-19T23:20:47.625Z,14.75
2019-02-19T23:23:16.411Z,17.32
2019-02-19T23:25:45.251Z,16.55
2019-02-19T23:28:14.045Z,16.15
2019-02-19T23:30:42.801Z,15.50
2019-02-19T23:33:11.647Z,11.50
2019-02-19T23:35:45.083Z,19.60
2019-02-19T23:38:13.867Z,11.38
2019-02-19T23:40:42.659Z,13.28
2019-02-19T23:43:11.418Z,18.45
2019-02-19T23:45:40.289Z,17.27
2019-02-19T23:48:09.252Z,19.15
2019-02-19T23:50:38.010Z,20.20
2019-02-19T23:53:06.806Z,13.03
2019-02-19T23:55:35.641Z,23.35
2019-02-19T23:58:04.498Z,18.57
